Time;durP1;ratioP1;P1;durP2;ratioP2;P2;SDS_P1;SDS_P2;PMS_P1;PMS_P2;Temp;Humidity;BMP_temperature;BMP_pressure;BME280_temperature;BME280_humidity;BME280_pressure;Samples;Min_cycle;Max_cycle;Signal;HPM_P1;HPM_P2
2022/05/16 00:02:09;;;;;;;;;;;16.50;99.90;;;;;;5114782;28;19973;-80
2022/05/16 00:04:36;;;;;;;;;;;16.50;99.90;;;;;;5115082;28;19968;-82
2022/05/16 00:07:01;;;;;;;;;;;16.40;99.90;;;;;;5116477;28;19947;-80
2022/05/16 00:09:27;;;;;;;;;;;16.40;99.90;;;;;;5115283;28;19958;-74
2022/05/16 00:11:52;;;;;;;;;;;16.40;99.90;;;;;;5106767;28;20007;-74
2022/05/16 00:14:18;;;;;;;;;;;16.30;99.90;;;;;;5100297;28;19967;-73
2022/05/16 00:16:43;;;;;;;;;;;16.30;99.90;;;;;;5099105;28;19926;-75
2022/05/16 00:19:09;;;;;;;;;;;16.30;99.90;;;;;;5116048;28;19927;-76
2022/05/16 00:21:36;;;;;;;;;;;16.20;99.90;;;;;;5112661;28;19916;-74
2022/05/16 00:24:02;;;;;;;;;;;16.20;99.90;;;;;;5095808;28;19999;-79
2022/05/16 00:26:27;;;;;;;;;;;16.20;99.90;;;;;;5110743;28;20304;-74
2022/05/16 00:28:53;;;;;;;;;;;16.20;99.90;;;;;;5112871;28;20206;-74
2022/05/16 00:31:18;;;;;;;;;;;16.20;99.90;;;;;;5114860;28;20325;-77
2022/05/16 00:33:44;;;;;;;;;;;16.20;99.90;;;;;;5114839;28;20206;-74
2022/05/16 00:36:10;;;;;;;;;;;16.20;99.90;;;;;;5114578;28;20306;-80
2022/05/16 00:38:36;;;;;;;;;;;16.20;99.90;;;;;;5116324;28;19919;-74
2022/05/16 00:41:02;;;;;;;;;;;16.10;99.90;;;;;;5116217;28;20256;-74
2022/05/16 00:43:42;;;;;;;;;;;16.10;99.90;;;;;;5092732;28;19923;-82
2022/05/16 00:46:08;;;;;;;;;;;16.00;99.90;;;;;;5098980;28;20028;-76
2022/05/16 00:48:33;;;;;;;;;;;16.00;99.90;;;;;;5116309;28;20285;-79
2022/05/16 00:51:00;;;;;;;;;;;16.00;99.90;;;;;;5114492;28;20214;-75
2022/05/16 00:53:25;;;;;;;;;;;15.90;99.90;;;;;;5113315;28;19965;-73
2022/05/16 00:55:51;;;;;;;;;;;15.90;99.90;;;;;;5116235;28;19908;-81
2022/05/16 00:58:17;;;;;;;;;;;15.80;99.90;;;;;;5110917;28;20002;-76
2022/05/16 01:00:43;;;;;;;;;;;15.80;99.90;;;;;;5115265;28;20222;-81
2022/05/16 01:05:57;;;;;;;;;;;15.70;99.90;;;;;;5116261;28;19914;-74
2022/05/16 01:08:25;;;;;;;;;;;15.70;99.90;;;;;;5127475;28;19916;-80
2022/05/16 01:10:55;;;;;;;;;;;15.60;99.90;;;;;;5095791;28;19940;-81
2022/05/16 01:13:24;;;;;;;;;;;15.50;99.90;;;;;;5097741;28;19923;-73
2022/05/16 01:15:50;;;;;;;;;;;15.50;99.90;;;;;;5113121;28;20332;-74
2022/05/16 01:18:17;;;;;;;;;;;15.50;99.90;;;;;;5113806;28;19923;-74
2022/05/16 01:21:00;;;;;;;;;;;15.50;99.90;;;;;;5115872;28;19912;-81
2022/05/16 01:23:27;;;;;;;;;;;15.50;99.90;;;;;;5112096;28;19918;-76
2022/05/16 01:25:53;;;;;;;;;;;15.50;99.90;;;;;;5094021;28;19915;-74
2022/05/16 01:28:20;;;;;;;;;;;15.40;99.90;;;;;;5113022;28;20331;-81
2022/05/16 01:30:47;;;;;;;;;;;15.50;99.90;;;;;;5103392;28;19912;-75
2022/05/16 01:33:20;;;;;;;;;;;15.40;99.90;;;;;;5112083;28;20299;-74
2022/05/16 01:35:46;;;;;;;;;;;15.40;99.90;;;;;;5111700;28;19918;-79
2022/05/16 01:38:18;;;;;;;;;;;15.40;99.90;;;;;;5112026;28;19919;-80
2022/05/16 01:40:48;;;;;;;;;;;15.40;99.90;;;;;;5117555;28;19918;-77
2022/05/16 01:43:14;;;;;;;;;;;15.30;99.90;;;;;;5113629;28;19912;-80
2022/05/16 01:45:41;;;;;;;;;;;15.20;99.90;;;;;;5117568;28;20302;-74
2022/05/16 01:48:07;;;;;;;;;;;15.20;99.90;;;;;;5107090;28;20295;-75
2022/05/16 01:50:33;;;;;;;;;;;15.10;99.90;;;;;;5112797;28;19954;-80
2022/05/16 01:52:59;;;;;;;;;;;15.10;99.90;;;;;;5139834;27;19939;-75
2022/05/16 01:55:24;;;;;;;;;;;15.20;99.90;;;;;;5118935;27;19908;-77
2022/05/16 01:57:50;;;;;;;;;;;15.20;99.90;;;;;;5103246;28;19908;-77
2022/05/16 02:00:15;;;;;;;;;;;15.10;99.90;;;;;;5098334;28;19916;-75
2022/05/16 02:02:42;;;;;;;;;;;15.10;99.90;;;;;;5113694;28;19919;-75
2022/05/16 02:05:18;;;;;;;;;;;15.10;99.90;;;;;;5118079;28;20378;-79
2022/05/16 02:07:45;;;;;;;;;;;15.00;99.90;;;;;;5107269;28;19912;-79
2022/05/16 02:10:11;;;;;;;;;;;15.00;99.90;;;;;;5117745;28;19912;-79
2022/05/16 02:12:37;;;;;;;;;;;15.00;99.90;;;;;;5110716;28;20323;-80
2022/05/16 02:15:04;;;;;;;;;;;15.00;99.90;;;;;;5113607;28;19991;-80
2022/05/16 02:17:29;;;;;;;;;;;15.00;99.90;;;;;;5111261;28;19908;-79
2022/05/16 02:19:55;;;;;;;;;;;15.00;99.90;;;;;;5101050;28;19931;-76
2022/05/16 02:25:05;;;;;;;;;;;14.90;99.90;;;;;;5114371;28;19918;-77
2022/05/16 02:27:31;;;;;;;;;;;14.90;99.90;;;;;;5118410;28;20558;-73
2022/05/16 02:29:57;;;;;;;;;;;14.90;99.90;;;;;;5117035;28;19912;-80
2022/05/16 02:32:23;;;;;;;;;;;14.90;99.90;;;;;;5114121;28;19965;-79
2022/05/16 02:34:49;;;;;;;;;;;14.90;99.90;;;;;;5116916;28;19911;-80
2022/05/16 02:37:15;;;;;;;;;;;14.90;99.90;;;;;;5116478;28;19939;-81
2022/05/16 02:39:44;;;;;;;;;;;14.90;99.90;;;;;;5117228;28;19916;-79
2022/05/16 02:42:14;;;;;;;;;;;14.90;99.90;;;;;;5114436;28;20305;-80
2022/05/16 02:44:40;;;;;;;;;;;14.80;99.90;;;;;;5112514;28;20026;-74
2022/05/16 02:47:06;;;;;;;;;;;14.80;99.90;;;;;;5116744;28;19937;-80
2022/05/16 02:49:32;;;;;;;;;;;14.90;99.90;;;;;;5117961;28;20344;-73
2022/05/16 02:51:58;;;;;;;;;;;14.90;99.90;;;;;;5117998;28;19908;-74
2022/05/16 02:54:23;;;;;;;;;;;14.90;99.90;;;;;;5114834;28;19923;-77
2022/05/16 02:56:49;;;;;;;;;;;14.90;99.90;;;;;;5115965;27;19912;-75
2022/05/16 02:59:15;;;;;;;;;;;14.80;99.90;;;;;;5117127;28;19915;-82
2022/05/16 03:01:41;;;;;;;;;;;14.70;99.90;;;;;;5117009;27;19920;-82
2022/05/16 03:04:07;;;;;;;;;;;14.60;99.90;;;;;;5106929;28;20020;-77
2022/05/16 03:06:32;;;;;;;;;;;14.60;99.90;;;;;;5109496;28;19987;-74
2022/05/16 03:08:58;;;;;;;;;;;14.50;99.90;;;;;;5110193;28;19907;-75
2022/05/16 03:11:23;;;;;;;;;;;14.50;99.90;;;;;;5113796;28;19914;-79
2022/05/16 03:13:49;;;;;;;;;;;14.40;99.90;;;;;;5137277;27;19925;-74
2022/05/16 03:16:16;;;;;;;;;;;14.40;99.90;;;;;;5111948;28;19942;-76
2022/05/16 03:18:41;;;;;;;;;;;14.40;99.90;;;;;;5109384;28;19936;-80
2022/05/16 03:21:07;;;;;;;;;;;14.40;99.90;;;;;;5109553;28;19912;-81
2022/05/16 03:23:32;;;;;;;;;;;14.30;99.90;;;;;;5106803;28;19920;-74
2022/05/16 03:25:58;;;;;;;;;;;14.30;99.90;;;;;;5111044;28;19920;-76
2022/05/16 03:28:25;;;;;;;;;;;14.10;99.90;;;;;;5110282;28;19912;-75
2022/05/16 03:30:51;;;;;;;;;;;14.10;99.90;;;;;;5099034;28;19916;-75
2022/05/16 03:33:17;;;;;;;;;;;14.10;99.90;;;;;;5110636;28;19916;-79
2022/05/16 03:35:43;;;;;;;;;;;14.10;99.90;;;;;;5102611;28;20311;-81
2022/05/16 03:40:41;;;;;;;;;;;14.10;99.90;;;;;;5105958;28;19912;-74
2022/05/16 03:40:55;;;;;;;;;;;14.10;99.90;;;;;;5113993;28;19919;-80
2022/05/16 03:43:20;;;;;;;;;;;14.10;99.90;;;;;;5140577;27;19912;-80
2022/05/16 03:45:46;;;;;;;;;;;14.10;99.90;;;;;;5110213;28;20053;-74
2022/05/16 03:48:11;;;;;;;;;;;14.10;99.90;;;;;;5110223;28;19943;-79
2022/05/16 03:50:37;;;;;;;;;;;14.10;99.90;;;;;;5110352;28;19992;-74
2022/05/16 03:53:04;;;;;;;;;;;14.20;99.90;;;;;;5110279;28;19966;-73
2022/05/16 03:55:31;;;;;;;;;;;14.20;99.90;;;;;;5104053;28;19920;-74
2022/05/16 03:57:57;;;;;;;;;;;14.30;99.90;;;;;;5106683;28;19958;-74
2022/05/16 04:00:23;;;;;;;;;;;14.20;99.90;;;;;;5098793;28;19959;-74
2022/05/16 04:02:49;;;;;;;;;;;14.20;99.90;;;;;;5104694;28;19919;-75
2022/05/16 04:05:18;;;;;;;;;;;14.20;99.90;;;;;;5099910;28;19919;-80
2022/05/16 04:07:44;;;;;;;;;;;14.20;99.90;;;;;;5115150;28;19912;-80
2022/05/16 04:10:10;;;;;;;;;;;14.30;99.90;;;;;;5112648;28;19934;-79
2022/05/16 04:12:35;;;;;;;;;;;14.40;99.90;;;;;;5107444;28;20452;-75
2022/05/16 04:15:02;;;;;;;;;;;14.40;99.90;;;;;;5114162;28;20022;-79
2022/05/16 04:17:27;;;;;;;;;;;14.50;99.90;;;;;;5114880;28;19912;-75
2022/05/16 04:19:53;;;;;;;;;;;14.60;99.90;;;;;;5114862;28;20331;-80
2022/05/16 04:22:18;;;;;;;;;;;14.60;99.90;;;;;;5114840;28;19911;-79
2022/05/16 04:24:44;;;;;;;;;;;14.70;99.90;;;;;;5113242;28;19965;-78
2022/05/16 04:27:09;;;;;;;;;;;14.90;99.90;;;;;;5107017;28;19920;-80
2022/05/16 04:29:35;;;;;;;;;;;15.10;99.90;;;;;;5106204;28;19923;-79
2022/05/16 04:32:01;;;;;;;;;;;15.10;99.90;;;;;;5108005;28;19988;-81
2022/05/16 04:34:26;;;;;;;;;;;15.20;99.90;;;;;;5110055;28;19920;-80
2022/05/16 04:36:52;;;;;;;;;;;15.30;99.90;;;;;;5113916;28;19920;-77
2022/05/16 04:39:17;;;;;;;;;;;15.40;99.90;;;;;;5111941;28;20252;-80
2022/05/16 04:44:27;;;;;;;;;;;15.50;99.90;;;;;;5113187;28;19919;-76
2022/05/16 04:46:53;;;;;;;;;;;15.50;99.90;;;;;;5107638;28;19924;-78
2022/05/16 04:49:18;;;;;;;;;;;15.60;99.90;;;;;;5113314;28;19912;-79
2022/05/16 04:51:44;;;;;;;;;;;15.60;99.90;;;;;;5114540;28;19916;-76
2022/05/16 04:54:09;;;;;;;;;;;15.70;99.90;;;;;;5113279;28;19916;-77
2022/05/16 04:56:36;;;;;;;;;;;15.80;99.90;;;;;;5107275;28;20017;-79
2022/05/16 04:59:01;;;;;;;;;;;15.90;99.90;;;;;;5113060;28;19961;-79
2022/05/16 05:01:27;;;;;;;;;;;16.00;99.90;;;;;;5114447;28;19916;-80
2022/05/16 05:03:52;;;;;;;;;;;16.00;99.90;;;;;;5114845;28;19912;-80
2022/05/16 05:06:18;;;;;;;;;;;16.00;99.90;;;;;;5113228;28;19911;-76
2022/05/16 05:08:44;;;;;;;;;;;16.10;99.90;;;;;;5114200;28;19942;-81
2022/05/16 05:16:38;;;;;;;;;;;16.20;99.90;;;;;;5109971;28;19919;-83
2022/05/16 05:19:04;;;;;;;;;;;16.30;99.90;;;;;;5098048;28;19924;-76
2022/05/16 05:21:30;;;;;;;;;;;16.40;99.90;;;;;;5099256;28;19923;-80
2022/05/16 05:23:56;;;;;;;;;;;16.50;99.90;;;;;;5099355;28;19919;-82
2022/05/16 05:26:21;;;;;;;;;;;16.50;99.90;;;;;;5098074;28;19919;-77
2022/05/16 05:28:47;;;;;;;;;;;16.60;99.90;;;;;;5097813;28;19912;-77
2022/05/16 05:31:13;;;;;;;;;;;16.60;99.90;;;;;;5098035;28;19908;-76
2022/05/16 05:33:39;;;;;;;;;;;16.60;99.90;;;;;;5112047;28;19915;-79
2022/05/16 05:36:04;;;;;;;;;;;16.70;99.90;;;;;;5117162;27;19912;-80
2022/05/16 05:38:30;;;;;;;;;;;16.90;99.90;;;;;;5105126;28;20307;-80
2022/05/16 05:40:56;;;;;;;;;;;17.00;99.90;;;;;;5097750;28;19916;-79
2022/05/16 05:43:21;;;;;;;;;;;17.20;99.90;;;;;;5080719;28;19920;-79
2022/05/16 05:45:47;;;;;;;;;;;17.40;99.90;;;;;;5109313;28;19916;-79
2022/05/16 05:48:12;;;;;;;;;;;17.60;99.90;;;;;;5118975;28;19912;-81
2022/05/16 05:50:38;;;;;;;;;;;17.70;99.90;;;;;;5117906;28;19908;-80
2022/05/16 05:53:03;;;;;;;;;;;17.90;99.90;;;;;;5146000;27;19987;-79
2022/05/16 05:55:29;;;;;;;;;;;18.00;99.90;;;;;;5100535;28;19916;-77
2022/05/16 05:57:55;;;;;;;;;;;18.10;99.90;;;;;;5117479;28;19916;-79
2022/05/16 06:00:20;;;;;;;;;;;18.20;99.90;;;;;;5113862;28;19909;-80
2022/05/16 06:02:46;;;;;;;;;;;18.20;99.90;;;;;;5114494;28;19950;-76
2022/05/16 06:05:16;;;;;;;;;;;18.20;99.90;;;;;;5116777;28;19908;-80
2022/05/16 06:07:42;;;;;;;;;;;18.30;99.90;;;;;;5113019;28;19912;-76
2022/05/16 06:10:08;;;;;;;;;;;18.30;99.90;;;;;;5117937;28;20272;-77
2022/05/16 06:12:33;;;;;;;;;;;18.30;99.90;;;;;;5107340;28;19912;-76
2022/05/16 06:14:59;;;;;;;;;;;18.40;99.90;;;;;;5097418;28;19926;-82
2022/05/16 06:17:25;;;;;;;;;;;18.40;99.90;;;;;;5098129;28;19912;-76
2022/05/16 06:19:50;;;;;;;;;;;18.50;99.90;;;;;;5097914;28;20330;-80
2022/05/16 06:22:16;;;;;;;;;;;18.50;99.90;;;;;;5101399;28;19927;-80
2022/05/16 06:27:29;;;;;;;;;;;18.70;99.90;;;;;;5115014;28;19966;-76
2022/05/16 06:29:56;;;;;;;;;;;18.80;99.90;;;;;;5114114;28;19922;-79
2022/05/16 06:32:21;;;;;;;;;;;19.00;99.90;;;;;;5116411;28;20325;-77
2022/05/16 06:34:48;;;;;;;;;;;19.20;99.90;;;;;;5115187;28;19916;-76
2022/05/16 06:37:14;;;;;;;;;;;19.40;99.90;;;;;;5114178;28;20252;-79
2022/05/16 06:39:40;;;;;;;;;;;19.60;99.90;;;;;;5115136;28;19911;-76
2022/05/16 06:42:06;;;;;;;;;;;19.90;99.90;;;;;;5116071;28;20067;-76
2022/05/16 06:44:31;;;;;;;;;;;20.10;99.90;;;;;;5107946;28;20282;-78
2022/05/16 06:46:57;;;;;;;;;;;20.30;99.90;;;;;;5113605;28;19912;-77
2022/05/16 06:49:22;;;;;;;;;;;20.20;99.90;;;;;;5113413;28;19911;-74
2022/05/16 06:51:48;;;;;;;;;;;20.40;99.90;;;;;;5107949;28;19911;-76
2022/05/16 06:54:13;;;;;;;;;;;20.40;99.90;;;;;;5105502;28;19916;-74
2022/05/16 06:56:39;;;;;;;;;;;20.40;99.90;;;;;;5111187;28;19976;-79
2022/05/16 06:59:04;;;;;;;;;;;20.30;99.90;;;;;;5107454;28;19911;-79
2022/05/16 07:01:30;;;;;;;;;;;20.30;99.90;;;;;;5109361;28;19918;-77
2022/05/16 07:03:56;;;;;;;;;;;20.30;99.90;;;;;;5107482;28;19944;-78
2022/05/16 07:06:21;;;;;;;;;;;20.30;99.90;;;;;;5114247;28;20000;-75
2022/05/16 07:08:47;;;;;;;;;;;20.20;99.90;;;;;;5114727;28;19911;-74
2022/05/16 07:11:13;;;;;;;;;;;20.10;99.90;;;;;;5115293;28;20326;-77
2022/05/16 07:13:38;;;;;;;;;;;20.00;99.90;;;;;;5106804;28;19916;-78
2022/05/16 07:16:04;;;;;;;;;;;19.90;99.90;;;;;;5115917;28;19916;-79
2022/05/16 07:18:29;;;;;;;;;;;19.90;99.90;;;;;;5108285;28;20007;-78
2022/05/16 07:20:55;;;;;;;;;;;19.90;99.90;;;;;;5114575;28;20317;-75
2022/05/16 07:23:21;;;;;;;;;;;19.90;99.90;;;;;;5114882;28;20317;-75
2022/05/16 07:28:31;;;;;;;;;;;20.10;99.90;;;;;;5114458;28;19965;-76
2022/05/16 07:30:56;;;;;;;;;;;20.10;99.90;;;;;;5107000;28;20249;-78
2022/05/16 07:33:22;;;;;;;;;;;20.10;99.90;;;;;;5114601;28;20195;-78
2022/05/16 07:35:52;;;;;;;;;;;20.10;99.90;;;;;;5112541;28;19943;-76
2022/05/16 07:38:21;;;;;;;;;;;20.10;99.90;;;;;;5113718;28;19999;-74
2022/05/16 07:40:47;;;;;;;;;;;20.00;99.90;;;;;;5096211;28;20195;-79
2022/05/16 07:43:12;;;;;;;;;;;20.00;99.90;;;;;;5114324;28;19919;-76
2022/05/16 07:45:38;;;;;;;;;;;20.10;99.90;;;;;;5106091;28;19931;-77
2022/05/16 07:48:04;;;;;;;;;;;20.10;99.90;;;;;;5114403;28;19934;-75
2022/05/16 07:50:30;;;;;;;;;;;20.00;99.90;;;;;;5114701;28;20023;-77
2022/05/16 07:52:58;;;;;;;;;;;20.00;99.90;;;;;;5106655;28;19996;-78
2022/05/16 07:55:24;;;;;;;;;;;19.90;99.90;;;;;;5111635;28;20006;-76
2022/05/16 07:57:50;;;;;;;;;;;19.90;99.90;;;;;;5109852;28;19912;-77
2022/05/16 08:00:16;;;;;;;;;;;19.90;99.90;;;;;;5110863;28;20496;-78
2022/05/16 08:02:42;;;;;;;;;;;20.00;99.90;;;;;;5105345;28;20256;-78
2022/05/16 08:05:08;;;;;;;;;;;20.10;99.90;;;;;;5115651;28;19911;-77
2022/05/16 08:07:34;;;;;;;;;;;20.20;99.90;;;;;;5116261;28;20052;-78
2022/05/16 08:12:44;;;;;;;;;;;20.30;99.90;;;;;;5116691;28;19914;-78
2022/05/16 08:15:09;;;;;;;;;;;20.40;99.90;;;;;;5112946;28;19919;-77
2022/05/16 08:17:35;;;;;;;;;;;20.50;99.90;;;;;;5110700;28;20041;-77
2022/05/16 08:20:04;;;;;;;;;;;20.80;99.90;;;;;;5114607;28;19955;-76
2022/05/16 08:22:31;;;;;;;;;;;20.90;99.90;;;;;;5105094;28;20042;-74
2022/05/16 08:24:56;;;;;;;;;;;21.10;99.90;;;;;;5113332;28;20010;-75
2022/05/16 08:27:22;;;;;;;;;;;21.40;99.90;;;;;;5108406;28;20006;-77
2022/05/16 08:29:47;;;;;;;;;;;21.50;99.90;;;;;;5106073;28;19918;-75
2022/05/16 08:32:13;;;;;;;;;;;21.50;99.90;;;;;;5112668;28;19934;-77
2022/05/16 08:34:39;;;;;;;;;;;21.50;99.90;;;;;;5113013;28;19938;-77
2022/05/16 08:39:52;;;;;;;;;;;21.40;99.90;;;;;;5112714;28;20312;-74
2022/05/16 08:42:21;;;;;;;;;;;21.40;99.90;;;;;;5107070;28;19912;-77
2022/05/16 08:44:50;;;;;;;;;;;21.40;99.90;;;;;;5110565;28;19919;-77
2022/05/16 08:47:36;;;;;;;;;;;21.30;99.90;;;;;;5116546;28;20214;-77
2022/05/16 08:50:08;;;;;;;;;;;21.40;99.90;;;;;;5115901;28;20010;-76
2022/05/16 08:52:33;;;;;;;;;;;21.50;99.90;;;;;;5117075;28;19922;-75
2022/05/16 08:55:03;;;;;;;;;;;21.50;99.90;;;;;;5117185;28;19916;-74
2022/05/16 08:57:32;;;;;;;;;;;21.60;99.90;;;;;;5116181;28;19912;-76
2022/05/16 09:00:01;;;;;;;;;;;21.70;99.90;;;;;;5117095;28;20256;-78
2022/05/16 09:02:29;;;;;;;;;;;21.70;99.90;;;;;;5117049;28;20264;-76
2022/05/16 09:05:17;;;;;;;;;;;21.90;99.90;;;;;;5111425;28;20306;-77
2022/05/16 09:07:53;;;;;;;;;;;22.40;99.90;;;;;;5118050;28;20454;-78
2022/05/16 09:10:21;;;;;;;;;;;23.20;99.90;;;;;;5114932;28;19911;-74
2022/05/16 09:12:47;;;;;;;;;;;23.70;99.60;;;;;;5118072;28;19911;-77
2022/05/16 09:15:12;;;;;;;;;;;23.90;99.70;;;;;;5117998;28;20715;-77
2022/05/16 09:17:56;;;;;;;;;;;24.10;99.90;;;;;;5109573;28;19911;-77
2022/05/16 09:20:28;;;;;;;;;;;24.60;99.90;;;;;;5115647;28;19955;-76
2022/05/16 09:22:59;;;;;;;;;;;25.50;98.80;;;;;;5117482;28;19924;-78
2022/05/16 09:25:51;;;;;;;;;;;25.80;97.50;;;;;;5115766;28;19924;-75
2022/05/16 09:28:35;;;;;;;;;;;26.00;98.60;;;;;;5114493;28;19916;-74
2022/05/16 09:31:07;;;;;;;;;;;26.40;96.60;;;;;;5117847;28;19923;-78
2022/05/16 09:33:33;;;;;;;;;;;27.10;97.20;;;;;;5116070;28;19916;-77
2022/05/16 09:36:03;;;;;;;;;;;27.50;96.60;;;;;;5114987;28;19934;-78
2022/05/16 09:38:29;;;;;;;;;;;27.50;96.60;;;;;;5091172;28;20303;-76
2022/05/16 09:40:58;;;;;;;;;;;27.70;96.60;;;;;;5116696;28;19915;-75
2022/05/16 09:43:24;;;;;;;;;;;28.00;95.10;;;;;;5116415;28;19915;-78
2022/05/16 09:45:54;;;;;;;;;;;28.40;94.80;;;;;;5117424;28;19935;-77
2022/05/16 09:48:23;;;;;;;;;;;28.30;94.90;;;;;;5115437;28;19995;-78
2022/05/16 09:51:03;;;;;;;;;;;28.10;95.00;;;;;;5115735;27;19915;-76
2022/05/16 09:53:30;;;;;;;;;;;27.90;96.00;;;;;;5119065;28;19915;-77
2022/05/16 09:55:59;;;;;;;;;;;27.90;95.40;;;;;;5118930;28;19960;-77
2022/05/16 09:58:28;;;;;;;;;;;27.80;95.90;;;;;;5117844;28;19935;-77
2022/05/16 10:00:55;;;;;;;;;;;27.90;95.80;;;;;;5117748;28;19914;-77
2022/05/16 10:03:24;;;;;;;;;;;27.80;95.90;;;;;;5118471;28;19919;-76
2022/05/16 10:05:51;;;;;;;;;;;27.80;95.00;;;;;;5118698;28;19912;-78
2022/05/16 10:08:23;;;;;;;;;;;27.40;95.90;;;;;;5117522;28;19912;-77
2022/05/16 10:10:48;;;;;;;;;;;27.20;96.50;;;;;;5118645;28;19915;-76
2022/05/16 10:13:15;;;;;;;;;;;27.00;96.60;;;;;;5118484;28;19912;-78
2022/05/16 10:15:41;;;;;;;;;;;26.90;96.90;;;;;;5118575;27;19911;-77
2022/05/16 10:18:08;;;;;;;;;;;26.80;97.70;;;;;;5113733;28;19926;-76
2022/05/16 10:20:39;;;;;;;;;;;27.10;97.60;;;;;;5115332;28;19953;-76
2022/05/16 10:23:13;;;;;;;;;;;27.50;97.30;;;;;;5111907;28;19947;-75
2022/05/16 10:25:44;;;;;;;;;;;28.10;96.80;;;;;;5098149;28;20260;-75
2022/05/16 10:28:17;;;;;;;;;;;29.10;95.00;;;;;;5110546;28;19960;-77
2022/05/16 10:33:29;;;;;;;;;;;29.50;94.80;;;;;;5114399;28;20031;-76
2022/05/16 10:35:58;;;;;;;;;;;29.00;94.20;;;;;;5104113;28;20002;-75
2022/05/16 10:38:24;;;;;;;;;;;29.10;95.30;;;;;;5109734;28;19915;-75
2022/05/16 10:40:54;;;;;;;;;;;29.10;94.50;;;;;;5104223;28;20268;-75
2022/05/16 10:43:29;;;;;;;;;;;29.10;94.10;;;;;;5106666;28;19912;-76
2022/05/16 10:46:01;;;;;;;;;;;28.50;94.10;;;;;;5105908;28;19912;-74
2022/05/16 10:48:26;;;;;;;;;;;27.70;94.50;;;;;;5096231;28;19926;-74
2022/05/16 10:51:07;;;;;;;;;;;27.60;95.40;;;;;;5113264;28;19915;-74
2022/05/16 10:53:36;;;;;;;;;;;27.20;95.30;;;;;;5116632;28;19976;-74
2022/05/16 10:56:21;;;;;;;;;;;26.90;96.00;;;;;;5114349;28;19998;-74
2022/05/16 10:59:01;;;;;;;;;;;26.50;96.00;;;;;;5098822;28;19920;-74
2022/05/16 11:01:26;;;;;;;;;;;26.00;96.30;;;;;;5108910;28;19919;-74
2022/05/16 11:04:03;;;;;;;;;;;25.60;97.30;;;;;;5100786;28;19912;-75
2022/05/16 11:06:31;;;;;;;;;;;25.40;97.30;;;;;;5114591;28;19918;-75
2022/05/16 11:09:00;;;;;;;;;;;25.20;97.30;;;;;;5115287;28;19922;-76
2022/05/16 11:11:35;;;;;;;;;;;24.90;97.70;;;;;;5109230;28;20333;-75
2022/05/16 11:14:06;;;;;;;;;;;24.50;98.40;;;;;;5114150;28;19970;-74
2022/05/16 11:16:33;;;;;;;;;;;24.20;99.60;;;;;;5101890;28;19916;-74
2022/05/16 11:18:59;;;;;;;;;;;24.00;99.90;;;;;;5106736;28;19930;-74
2022/05/16 11:21:43;;;;;;;;;;;23.90;99.90;;;;;;5106765;28;19920;-74
2022/05/16 11:24:19;;;;;;;;;;;23.60;99.90;;;;;;5111794;28;19912;-74
2022/05/16 11:26:45;;;;;;;;;;;23.20;99.90;;;;;;5110992;28;19929;-75
2022/05/16 11:29:23;;;;;;;;;;;22.70;99.90;;;;;;5113782;28;19916;-74
2022/05/16 11:31:56;;;;;;;;;;;22.40;99.90;;;;;;5112190;28;19916;-74
2022/05/16 11:34:24;;;;;;;;;;;22.20;99.90;;;;;;5114066;28;19919;-74
2022/05/16 11:36:54;;;;;;;;;;;22.10;99.90;;;;;;5110759;28;19912;-75
2022/05/16 11:39:52;;;;;;;;;;;22.10;99.90;;;;;;5112043;28;19919;-74
2022/05/16 11:42:36;;;;;;;;;;;22.10;99.90;;;;;;5104610;28;19916;-74
2022/05/16 11:45:06;;;;;;;;;;;22.10;99.90;;;;;;5106572;28;20307;-74
2022/05/16 11:47:37;;;;;;;;;;;22.10;99.90;;;;;;5111927;28;19911;-74
2022/05/16 11:50:22;;;;;;;;;;;22.10;99.90;;;;;;5114917;28;19919;-74
2022/05/16 11:53:03;;;;;;;;;;;22.20;99.90;;;;;;5111803;28;20014;-74
2022/05/16 12:01:01;;;;;;;;;;;22.10;99.90;;;;;;5111282;28;19919;-74
2022/05/16 12:03:39;;;;;;;;;;;22.00;99.90;;;;;;5113211;28;19919;-74
2022/05/16 12:06:23;;;;;;;;;;;21.90;99.90;;;;;;5105383;28;20291;-75
2022/05/16 12:08:48;;;;;;;;;;;21.70;99.90;;;;;;5110631;28;20027;-74
2022/05/16 12:11:16;;;;;;;;;;;21.60;99.90;;;;;;5112705;28;20302;-74
2022/05/16 12:14:01;;;;;;;;;;;21.40;99.90;;;;;;5111232;28;20377;-75
2022/05/16 12:16:28;;;;;;;;;;;21.30;99.90;;;;;;5113483;28;20218;-74
2022/05/16 12:19:09;;;;;;;;;;;21.30;99.90;;;;;;5103628;28;20473;-75
2022/05/16 12:21:35;;;;;;;;;;;21.20;99.90;;;;;;5111226;28;19972;-74
2022/05/16 12:24:03;;;;;;;;;;;21.20;99.90;;;;;;5113649;28;20614;-75
2022/05/16 12:26:28;;;;;;;;;;;21.20;99.90;;;;;;5111303;28;19998;-74
2022/05/16 12:29:09;;;;;;;;;;;21.10;99.90;;;;;;5106247;28;20007;-74
2022/05/16 12:31:49;;;;;;;;;;;21.00;99.90;;;;;;5103669;28;19918;-75
2022/05/16 12:34:33;;;;;;;;;;;20.80;99.90;;;;;;5113458;28;19981;-73
2022/05/16 12:36:59;;;;;;;;;;;20.70;99.90;;;;;;5113779;28;19911;-74
2022/05/16 12:39:30;;;;;;;;;;;20.50;99.90;;;;;;5114755;28;19912;-74
2022/05/16 12:42:07;;;;;;;;;;;20.50;99.90;;;;;;5115061;28;19919;-74
2022/05/16 12:44:51;;;;;;;;;;;20.40;99.90;;;;;;5104795;28;19912;-74
2022/05/16 12:47:29;;;;;;;;;;;20.20;99.90;;;;;;5114736;28;19995;-74
2022/05/16 12:49:54;;;;;;;;;;;20.00;99.90;;;;;;5115903;28;19908;-75
2022/05/16 12:52:40;;;;;;;;;;;20.10;99.90;;;;;;5115668;28;19908;-74
2022/05/16 12:55:24;;;;;;;;;;;20.10;99.90;;;;;;5113731;28;19924;-75
2022/05/16 12:58:02;;;;;;;;;;;20.10;99.90;;;;;;5114378;28;19959;-75
2022/05/16 13:00:46;;;;;;;;;;;19.90;99.90;;;;;;5101867;28;19922;-75
2022/05/16 13:03:18;;;;;;;;;;;19.80;99.90;;;;;;5109866;28;19984;-74
2022/05/16 13:05:54;;;;;;;;;;;19.50;99.90;;;;;;5112145;28;19911;-74
2022/05/16 13:08:28;;;;;;;;;;;19.10;99.90;;;;;;5110398;28;20034;-75
2022/05/16 13:11:00;;;;;;;;;;;18.90;99.90;;;;;;5111613;28;19926;-74
2022/05/16 13:13:44;;;;;;;;;;;18.70;99.90;;;;;;5107107;28;20015;-75
2022/05/16 13:16:09;;;;;;;;;;;18.60;99.90;;;;;;5096026;28;19916;-76
2022/05/16 13:18:51;;;;;;;;;;;18.50;99.90;;;;;;5107296;28;19930;-75
2022/05/16 13:21:18;;;;;;;;;;;18.60;99.90;;;;;;5110479;28;19912;-75
2022/05/16 13:23:43;;;;;;;;;;;18.80;99.90;;;;;;5105241;28;20317;-74
2022/05/16 13:31:39;;;;;;;;;;;19.20;99.90;;;;;;5104569;28;19922;-74
2022/05/16 13:34:04;;;;;;;;;;;19.20;99.90;;;;;;5112450;28;19926;-74
2022/05/16 13:36:31;;;;;;;;;;;19.30;99.90;;;;;;5112364;28;19920;-74
2022/05/16 13:39:06;;;;;;;;;;;19.30;99.90;;;;;;5115017;28;19916;-74
2022/05/16 13:41:32;;;;;;;;;;;19.30;99.90;;;;;;5107598;28;19912;-75
2022/05/16 13:43:58;;;;;;;;;;;19.50;99.90;;;;;;5112101;28;19915;-75
2022/05/16 13:46:25;;;;;;;;;;;19.60;99.90;;;;;;5111104;28;19966;-74
2022/05/16 13:48:58;;;;;;;;;;;19.70;99.90;;;;;;5101390;28;20562;-74
2022/05/16 13:51:24;;;;;;;;;;;19.80;99.90;;;;;;5111554;28;19922;-74
2022/05/16 13:53:50;;;;;;;;;;;20.00;99.90;;;;;;5103990;28;19916;-74
2022/05/16 13:56:15;;;;;;;;;;;20.40;99.90;;;;;;5094710;28;20617;-74
2022/05/16 13:58:41;;;;;;;;;;;20.80;99.90;;;;;;5114295;28;19920;-74
2022/05/16 14:01:20;;;;;;;;;;;21.10;99.90;;;;;;5112831;28;19968;-74
2022/05/16 14:03:55;;;;;;;;;;;21.20;99.90;;;;;;5112307;28;19915;-74
2022/05/16 14:06:28;;;;;;;;;;;21.40;99.90;;;;;;5097692;27;19919;-74
2022/05/16 14:08:59;;;;;;;;;;;21.60;99.90;;;;;;5107351;28;19923;-75
2022/05/16 14:11:27;;;;;;;;;;;21.60;99.90;;;;;;5112361;28;20026;-74
2022/05/16 14:13:54;;;;;;;;;;;21.30;99.90;;;;;;5111029;28;20561;-74
2022/05/16 14:16:25;;;;;;;;;;;21.10;99.90;;;;;;5095805;28;19922;-74
2022/05/16 14:19:05;;;;;;;;;;;20.90;99.90;;;;;;5103250;28;19923;-75
2022/05/16 14:21:50;;;;;;;;;;;20.80;99.90;;;;;;5108925;28;20028;-77
2022/05/16 14:24:18;;;;;;;;;;;20.70;99.90;;;;;;5110118;27;19927;-74
2022/05/16 14:26:48;;;;;;;;;;;20.60;99.90;;;;;;5108803;28;19915;-74
2022/05/16 14:32:18;;;;;;;;;;;20.70;99.90;;;;;;5112245;28;19977;-76
2022/05/16 14:34:47;;;;;;;;;;;20.80;99.90;;;;;;5103539;28;19919;-75
2022/05/16 14:37:17;;;;;;;;;;;20.80;99.90;;;;;;5096728;28;19950;-75
2022/05/16 14:39:42;;;;;;;;;;;20.80;99.90;;;;;;5112542;28;19912;-74
2022/05/16 14:42:14;;;;;;;;;;;20.80;99.90;;;;;;5115550;28;19961;-75
2022/05/16 14:44:57;;;;;;;;;;;20.70;99.90;;;;;;5109393;28;19915;-74
2022/05/16 14:47:39;;;;;;;;;;;20.70;99.90;;;;;;5111336;28;19916;-74
2022/05/16 14:50:15;;;;;;;;;;;20.70;99.90;;;;;;5109459;28;19916;-74
2022/05/16 14:53:01;;;;;;;;;;;20.60;99.90;;;;;;5111485;28;20022;-74
2022/05/16 14:55:34;;;;;;;;;;;20.50;99.90;;;;;;5112796;28;19919;-74
2022/05/16 14:58:00;;;;;;;;;;;20.40;99.90;;;;;;5112524;28;19919;-75
2022/05/16 15:05:55;;;;;;;;;;;20.00;99.90;;;;;;5113967;28;19977;-74
2022/05/16 15:08:29;;;;;;;;;;;19.90;99.90;;;;;;5113548;28;19925;-74
2022/05/16 15:10:55;;;;;;;;;;;19.70;99.90;;;;;;5113104;28;19960;-74
2022/05/16 15:13:20;;;;;;;;;;;19.70;99.90;;;;;;5112081;28;20333;-75